Fall Rock, KY (40932)

11:43 PM EDT on August 03, 2015 (GMT -0400)
APRSWXNET | | Change Station
CLOSE
Current Station
Personal Weather Station
Location: Fall Rock, KY
Elevation: 1515 ft
Nearby Weather Stations

Elev 1515 ft 37.21 °N, 83.84 °W | Updated 24 minutes ago

Mostly Cloudy
Mostly Cloudy
77 °F
Feels Like 78 °F
N
2
Wind Variable Wind from ESE
Gusts 3.0 mph

Today
High -- | Low -- °F
--% Chance of Precip.
Yesterday
High -- | Low -- °F
Precip. -- in
6:41 AM 8:40 PM
Waning Gibbous, 81% visible
Pressure 29.93 in
Visibility 10.0 miles
Clouds Few 5000 ft
Scattered Clouds 6000 ft
Heat Index 78 °F
Dew Point 75 °F
Humidity 94%
Rainfall in
Snow Depth Not available.
UV 0 out of 12
Pollen 4.80 out of 12
Air Quality Not available.
Flu Activity Not available.
METAR KLOZ 040253Z AUTO 21005KT 10SM FEW050 SCT060 27/19 A2997 RMK AO2 SLP133 T02670194 53009

More Conditions Fewer Conditions

Pressure 29.93 in
Visibility 10.0 miles
Clouds Few 5000 ft
Scattered Clouds 6000 ft
Heat Index 78 °F
Dew Point 75 °F
Humidity 94%
Rainfall in
Snow Depth Not available.
UV 0 out of 12
Pollen 4.80 out of 12
Air Quality Not available.
Flu Activity Not available.
METAR KLOZ 040253Z AUTO 21005KT 10SM FEW050 SCT060 27/19 A2997 RMK AO2 SLP133 T02670194 53009

More Conditions Fewer Conditions

10-Day Weather Forecast

×

Almanac

Astronomy

Aug. 03, 2015 Rise Set
Actual Time
Civil Twilight
Nautical Twilight
Astronomical Twilight
Moon
Length of Visible Light
Length of Day
Tomorrow will be .
, % of the Moon is Illuminated

Today's Extremes

State Highs State Lows

Community

WunderPhotos

Upload Photos

1,843,847 photos uploaded!

WunderBlogs® & News

Nearby

Air Quality

  Air Quality AQ Index Pollutant
Not available.

Snow Depth

Station Depth Elevation

Earthquake Activity

City Distance Mag. Time & Date
Minimum magnitude displayed is 2.5.

Coastal Water Temperatures

Place Temperature

Stations

Nearby Weather Stations

Station Location Temp. Windchill Dew Point Humidity Wind Precip. Elev Updated Type